sensor_id;sensor_type;location;lat;lon;timestamp;P1;durP1;ratioP1;P2;durP2;ratioP2
75760;SDS011;64373;46.136;8.830;2023-08-17T00:00:32;3.35;;;3.05;;
75760;SDS011;64373;46.136;8.830;2023-08-17T00:02:58;4.13;;;3.60;;
75760;SDS011;64373;46.136;8.830;2023-08-17T00:05:23;4.70;;;4.05;;
75760;SDS011;64373;46.136;8.830;2023-08-17T00:07:49;4.47;;;3.35;;
75760;SDS011;64373;46.136;8.830;2023-08-17T00:10:14;5.80;;;3.70;;
75760;SDS011;64373;46.136;8.830;2023-08-17T00:12:40;4.25;;;3.20;;
75760;SDS011;64373;46.136;8.830;2023-08-17T00:15:05;3.83;;;3.53;;
75760;SDS011;64373;46.136;8.830;2023-08-17T00:17:31;3.75;;;3.30;;
75760;SDS011;64373;46.136;8.830;2023-08-17T00:19:57;3.90;;;3.50;;
75760;SDS011;64373;46.136;8.830;2023-08-17T00:22:23;3.28;;;2.97;;
75760;SDS011;64373;46.136;8.830;2023-08-17T00:24:48;3.80;;;3.40;;
75760;SDS011;64373;46.136;8.830;2023-08-17T00:27:14;3.85;;;3.33;;
75760;SDS011;64373;46.136;8.830;2023-08-17T00:29:39;3.90;;;3.05;;
75760;SDS011;64373;46.136;8.830;2023-08-17T00:32:05;2.60;;;2.40;;
75760;SDS011;64373;46.136;8.830;2023-08-17T00:34:31;2.67;;;2.47;;
75760;SDS011;64373;46.136;8.830;2023-08-17T00:36:56;3.60;;;2.80;;
75760;SDS011;64373;46.136;8.830;2023-08-17T00:39:22;2.95;;;2.65;;
75760;SDS011;64373;46.136;8.830;2023-08-17T00:41:47;2.30;;;2.10;;
75760;SDS011;64373;46.136;8.830;2023-08-17T00:44:13;3.35;;;3.05;;
75760;SDS011;64373;46.136;8.830;2023-08-17T00:46:38;4.32;;;3.10;;
75760;SDS011;64373;46.136;8.830;2023-08-17T00:49:05;2.85;;;2.63;;
75760;SDS011;64373;46.136;8.830;2023-08-17T00:51:31;2.90;;;2.58;;
75760;SDS011;64373;46.136;8.830;2023-08-17T00:54:00;2.67;;;2.17;;
75760;SDS011;64373;46.136;8.830;2023-08-17T00:56:27;2.55;;;2.35;;
75760;SDS011;64373;46.136;8.830;2023-08-17T00:58:52;2.20;;;2.00;;
75760;SDS011;64373;46.136;8.830;2023-08-17T01:01:19;2.17;;;1.98;;
75760;SDS011;64373;46.136;8.830;2023-08-17T01:03:45;3.00;;;2.70;;
75760;SDS011;64373;46.136;8.830;2023-08-17T01:06:10;3.25;;;2.63;;
75760;SDS011;64373;46.136;8.830;2023-08-17T01:08:36;2.83;;;2.63;;
75760;SDS011;64373;46.136;8.830;2023-08-17T01:16:32;3.40;;;3.10;;
75760;SDS011;64373;46.136;8.830;2023-08-17T01:19:00;2.55;;;2.35;;
75760;SDS011;64373;46.136;8.830;2023-08-17T01:21:30;2.85;;;2.65;;
75760;SDS011;64373;46.136;8.830;2023-08-17T01:24:03;3.97;;;3.53;;
75760;SDS011;64373;46.136;8.830;2023-08-17T01:26:28;3.78;;;2.85;;
75760;SDS011;64373;46.136;8.830;2023-08-17T01:28:54;2.90;;;2.60;;
75760;SDS011;64373;46.136;8.830;2023-08-17T01:31:22;2.25;;;1.95;;
75760;SDS011;64373;46.136;8.830;2023-08-17T01:33:51;2.63;;;2.28;;
75760;SDS011;64373;46.136;8.830;2023-08-17T01:36:20;2.90;;;2.30;;
75760;SDS011;64373;46.136;8.830;2023-08-17T01:38:51;2.00;;;1.90;;
75760;SDS011;64373;46.136;8.830;2023-08-17T01:41:17;1.90;;;1.80;;
75760;SDS011;64373;46.136;8.830;2023-08-17T01:43:44;3.60;;;2.97;;
75760;SDS011;64373;46.136;8.830;2023-08-17T01:46:17;4.25;;;3.20;;
75760;SDS011;64373;46.136;8.830;2023-08-17T01:48:43;2.28;;;1.90;;
75760;SDS011;64373;46.136;8.830;2023-08-17T01:51:10;2.13;;;1.92;;
75760;SDS011;64373;46.136;8.830;2023-08-17T01:53:36;2.85;;;2.60;;
75760;SDS011;64373;46.136;8.830;2023-08-17T01:56:02;1.67;;;1.58;;
75760;SDS011;64373;46.136;8.830;2023-08-17T01:58:28;3.20;;;2.72;;
75760;SDS011;64373;46.136;8.830;2023-08-17T02:00:53;3.22;;;2.92;;
75760;SDS011;64373;46.136;8.830;2023-08-17T02:03:19;4.03;;;3.55;;
75760;SDS011;64373;46.136;8.830;2023-08-17T02:05:45;2.65;;;2.45;;
75760;SDS011;64373;46.136;8.830;2023-08-17T02:08:11;2.80;;;2.60;;
75760;SDS011;64373;46.136;8.830;2023-08-17T02:10:36;3.75;;;3.20;;
75760;SDS011;64373;46.136;8.830;2023-08-17T02:13:02;2.50;;;2.30;;
75760;SDS011;64373;46.136;8.830;2023-08-17T02:15:28;3.45;;;2.05;;
75760;SDS011;64373;46.136;8.830;2023-08-17T02:17:53;1.88;;;1.77;;
75760;SDS011;64373;46.136;8.830;2023-08-17T02:20:19;2.80;;;2.30;;
75760;SDS011;64373;46.136;8.830;2023-08-17T02:22:46;1.90;;;1.80;;
75760;SDS011;64373;46.136;8.830;2023-08-17T02:25:11;2.60;;;2.20;;
75760;SDS011;64373;46.136;8.830;2023-08-17T02:27:37;2.85;;;2.20;;
75760;SDS011;64373;46.136;8.830;2023-08-17T02:30:03;3.40;;;3.10;;
75760;SDS011;64373;46.136;8.830;2023-08-17T02:32:29;4.82;;;3.40;;
75760;SDS011;64373;46.136;8.830;2023-08-17T02:34:54;3.30;;;3.00;;
75760;SDS011;64373;46.136;8.830;2023-08-17T02:37:20;2.97;;;2.63;;
75760;SDS011;64373;46.136;8.830;2023-08-17T02:39:45;2.65;;;2.45;;
75760;SDS011;64373;46.136;8.830;2023-08-17T02:42:11;2.80;;;2.42;;
75760;SDS011;64373;46.136;8.830;2023-08-17T02:44:36;3.35;;;2.60;;
75760;SDS011;64373;46.136;8.830;2023-08-17T02:47:02;3.35;;;3.00;;
75760;SDS011;64373;46.136;8.830;2023-08-17T02:49:27;2.30;;;2.10;;
75760;SDS011;64373;46.136;8.830;2023-08-17T02:51:53;3.25;;;2.90;;
75760;SDS011;64373;46.136;8.830;2023-08-17T02:54:18;2.40;;;1.85;;
75760;SDS011;64373;46.136;8.830;2023-08-17T02:56:44;2.63;;;2.30;;
75760;SDS011;64373;46.136;8.830;2023-08-17T02:59:09;3.30;;;2.50;;
75760;SDS011;64373;46.136;8.830;2023-08-17T03:01:35;2.60;;;2.30;;
75760;SDS011;64373;46.136;8.830;2023-08-17T03:04:00;2.70;;;2.50;;
75760;SDS011;64373;46.136;8.830;2023-08-17T03:06:26;2.00;;;1.90;;
75760;SDS011;64373;46.136;8.830;2023-08-17T03:08:52;2.53;;;2.33;;
75760;SDS011;64373;46.136;8.830;2023-08-17T03:11:19;2.90;;;2.60;;
75760;SDS011;64373;46.136;8.830;2023-08-17T03:13:46;2.28;;;1.92;;
75760;SDS011;64373;46.136;8.830;2023-08-17T03:16:13;1.80;;;1.70;;
75760;SDS011;64373;46.136;8.830;2023-08-17T03:18:39;1.85;;;1.67;;
75760;SDS011;64373;46.136;8.830;2023-08-17T03:21:05;3.22;;;2.20;;
75760;SDS011;64373;46.136;8.830;2023-08-17T03:23:32;4.50;;;2.65;;
75760;SDS011;64373;46.136;8.830;2023-08-17T03:25:57;3.35;;;2.92;;
75760;SDS011;64373;46.136;8.830;2023-08-17T03:28:23;3.67;;;2.78;;
75760;SDS011;64373;46.136;8.830;2023-08-17T03:30:54;2.85;;;2.55;;
75760;SDS011;64373;46.136;8.830;2023-08-17T03:33:20;2.88;;;2.40;;
75760;SDS011;64373;46.136;8.830;2023-08-17T03:35:46;2.10;;;1.95;;
75760;SDS011;64373;46.136;8.830;2023-08-17T03:38:12;3.08;;;2.78;;
75760;SDS011;64373;46.136;8.830;2023-08-17T03:40:37;2.40;;;2.20;;
75760;SDS011;64373;46.136;8.830;2023-08-17T03:43:03;2.58;;;2.38;;
75760;SDS011;64373;46.136;8.830;2023-08-17T03:45:29;2.45;;;2.25;;
75760;SDS011;64373;46.136;8.830;2023-08-17T03:47:55;2.80;;;2.40;;
75760;SDS011;64373;46.136;8.830;2023-08-17T03:50:21;3.47;;;2.78;;
75760;SDS011;64373;46.136;8.830;2023-08-17T03:52:47;2.88;;;2.67;;
75760;SDS011;64373;46.136;8.830;2023-08-17T03:55:12;4.38;;;3.47;;
75760;SDS011;64373;46.136;8.830;2023-08-17T03:57:38;3.22;;;2.92;;
75760;SDS011;64373;46.136;8.830;2023-08-17T04:00:03;3.15;;;2.85;;
75760;SDS011;64373;46.136;8.830;2023-08-17T04:02:31;2.97;;;2.60;;
75760;SDS011;64373;46.136;8.830;2023-08-17T04:04:56;2.95;;;2.60;;
75760;SDS011;64373;46.136;8.830;2023-08-17T04:07:22;2.55;;;2.30;;
75760;SDS011;64373;46.136;8.830;2023-08-17T04:09:48;3.13;;;2.83;;
75760;SDS011;64373;46.136;8.830;2023-08-17T04:12:14;5.07;;;3.78;;
75760;SDS011;64373;46.136;8.830;2023-08-17T04:14:40;2.90;;;2.70;;
75760;SDS011;64373;46.136;8.830;2023-08-17T04:17:05;2.88;;;2.58;;
75760;SDS011;64373;46.136;8.830;2023-08-17T04:19:32;2.97;;;2.67;;
75760;SDS011;64373;46.136;8.830;2023-08-17T04:21:57;5.78;;;3.50;;
75760;SDS011;64373;46.136;8.830;2023-08-17T04:24:23;4.47;;;3.80;;
75760;SDS011;64373;46.136;8.830;2023-08-17T04:26:49;4.35;;;3.60;;
75760;SDS011;64373;46.136;8.830;2023-08-17T04:29:15;4.53;;;3.78;;
75760;SDS011;64373;46.136;8.830;2023-08-17T04:31:40;7.25;;;5.25;;
75760;SDS011;64373;46.136;8.830;2023-08-17T04:34:06;5.35;;;4.70;;
75760;SDS011;64373;46.136;8.830;2023-08-17T04:36:31;4.10;;;3.45;;
75760;SDS011;64373;46.136;8.830;2023-08-17T04:38:57;3.78;;;3.30;;
75760;SDS011;64373;46.136;8.830;2023-08-17T04:41:23;3.50;;;3.10;;
75760;SDS011;64373;46.136;8.830;2023-08-17T04:43:49;3.20;;;2.90;;
75760;SDS011;64373;46.136;8.830;2023-08-17T04:46:14;3.45;;;3.13;;
75760;SDS011;64373;46.136;8.830;2023-08-17T04:48:40;4.75;;;3.30;;
75760;SDS011;64373;46.136;8.830;2023-08-17T04:51:08;2.90;;;2.70;;
75760;SDS011;64373;46.136;8.830;2023-08-17T04:53:34;3.85;;;2.70;;
75760;SDS011;64373;46.136;8.830;2023-08-17T04:56:02;2.90;;;2.60;;
75760;SDS011;64373;46.136;8.830;2023-08-17T04:58:27;3.90;;;3.53;;
75760;SDS011;64373;46.136;8.830;2023-08-17T05:00:53;3.28;;;2.97;;
75760;SDS011;64373;46.136;8.830;2023-08-17T05:03:19;3.67;;;3.10;;
75760;SDS011;64373;46.136;8.830;2023-08-17T05:05:44;3.20;;;2.90;;
75760;SDS011;64373;46.136;8.830;2023-08-17T05:08:10;6.05;;;4.47;;
75760;SDS011;64373;46.136;8.830;2023-08-17T05:10:35;3.63;;;3.22;;
75760;SDS011;64373;46.136;8.830;2023-08-17T05:13:01;4.25;;;3.47;;
75760;SDS011;64373;46.136;8.830;2023-08-17T05:15:27;2.55;;;2.35;;
75760;SDS011;64373;46.136;8.830;2023-08-17T05:17:53;2.80;;;2.30;;
75760;SDS011;64373;46.136;8.830;2023-08-17T05:20:18;4.03;;;3.25;;
75760;SDS011;64373;46.136;8.830;2023-08-17T05:22:46;4.88;;;3.50;;
75760;SDS011;64373;46.136;8.830;2023-08-17T05:25:12;4.03;;;3.63;;
75760;SDS011;64373;46.136;8.830;2023-08-17T05:27:37;6.28;;;4.25;;
75760;SDS011;64373;46.136;8.830;2023-08-17T05:30:03;4.40;;;3.95;;
75760;SDS011;64373;46.136;8.830;2023-08-17T05:32:29;4.28;;;3.88;;
75760;SDS011;64373;46.136;8.830;2023-08-17T05:34:55;4.22;;;3.35;;
75760;SDS011;64373;46.136;8.830;2023-08-17T05:37:20;3.40;;;3.10;;
75760;SDS011;64373;46.136;8.830;2023-08-17T05:39:46;4.03;;;3.63;;
75760;SDS011;64373;46.136;8.830;2023-08-17T05:42:11;5.35;;;4.47;;
75760;SDS011;64373;46.136;8.830;2023-08-17T05:44:37;4.93;;;4.53;;
75760;SDS011;64373;46.136;8.830;2023-08-17T05:47:02;5.25;;;4.40;;
75760;SDS011;64373;46.136;8.830;2023-08-17T05:49:28;5.15;;;4.00;;
75760;SDS011;64373;46.136;8.830;2023-08-17T05:51:54;4.28;;;3.60;;
75760;SDS011;64373;46.136;8.830;2023-08-17T05:54:20;3.92;;;3.53;;
75760;SDS011;64373;46.136;8.830;2023-08-17T05:56:45;4.57;;;4.18;;
75760;SDS011;64373;46.136;8.830;2023-08-17T05:59:12;5.50;;;5.00;;
75760;SDS011;64373;46.136;8.830;2023-08-17T06:01:39;5.40;;;4.65;;
75760;SDS011;64373;46.136;8.830;2023-08-17T06:04:05;4.03;;;3.58;;
75760;SDS011;64373;46.136;8.830;2023-08-17T06:06:32;3.70;;;3.30;;
75760;SDS011;64373;46.136;8.830;2023-08-17T06:08:58;5.13;;;3.83;;
75760;SDS011;64373;46.136;8.830;2023-08-17T06:11:24;7.03;;;4.20;;
75760;SDS011;64373;46.136;8.830;2023-08-17T06:13:49;3.83;;;2.85;;
75760;SDS011;64373;46.136;8.830;2023-08-17T06:16:15;3.17;;;2.88;;
75760;SDS011;64373;46.136;8.830;2023-08-17T06:18:41;2.65;;;2.45;;
75760;SDS011;64373;46.136;8.830;2023-08-17T06:21:07;2.40;;;2.20;;
75760;SDS011;64373;46.136;8.830;2023-08-17T06:23:33;3.35;;;3.05;;
75760;SDS011;64373;46.136;8.830;2023-08-17T06:25:59;3.35;;;3.05;;
75760;SDS011;64373;46.136;8.830;2023-08-17T06:28:25;4.45;;;3.33;;
75760;SDS011;64373;46.136;8.830;2023-08-17T06:30:55;6.13;;;4.68;;
75760;SDS011;64373;46.136;8.830;2023-08-17T06:33:21;6.47;;;4.75;;
75760;SDS011;64373;46.136;8.830;2023-08-17T06:35:47;4.22;;;3.40;;
75760;SDS011;64373;46.136;8.830;2023-08-17T06:38:14;6.15;;;4.80;;
75760;SDS011;64373;46.136;8.830;2023-08-17T06:40:40;5.10;;;4.15;;
75760;SDS011;64373;46.136;8.830;2023-08-17T06:43:06;4.50;;;4.10;;
75760;SDS011;64373;46.136;8.830;2023-08-17T06:45:32;5.43;;;4.88;;
75760;SDS011;64373;46.136;8.830;2023-08-17T06:47:58;6.32;;;5.00;;
75760;SDS011;64373;46.136;8.830;2023-08-17T06:50:24;3.92;;;3.53;;
75760;SDS011;64373;46.136;8.830;2023-08-17T06:52:51;4.75;;;4.18;;
75760;SDS011;64373;46.136;8.830;2023-08-17T06:55:17;5.10;;;4.63;;
75760;SDS011;64373;46.136;8.830;2023-08-17T06:57:43;6.65;;;4.63;;
75760;SDS011;64373;46.136;8.830;2023-08-17T07:00:09;5.10;;;4.55;;
75760;SDS011;64373;46.136;8.830;2023-08-17T07:02:38;5.20;;;4.70;;
75760;SDS011;64373;46.136;8.830;2023-08-17T07:05:04;7.57;;;4.80;;
75760;SDS011;64373;46.136;8.830;2023-08-17T07:07:30;5.15;;;4.70;;
75760;SDS011;64373;46.136;8.830;2023-08-17T07:09:59;5.63;;;5.00;;
75760;SDS011;64373;46.136;8.830;2023-08-17T07:12:24;6.25;;;4.70;;
75760;SDS011;64373;46.136;8.830;2023-08-17T07:14:50;5.45;;;4.90;;
75760;SDS011;64373;46.136;8.830;2023-08-17T07:17:16;5.75;;;4.57;;
75760;SDS011;64373;46.136;8.830;2023-08-17T07:19:42;4.50;;;4.10;;
75760;SDS011;64373;46.136;8.830;2023-08-17T07:22:07;5.57;;;4.60;;
75760;SDS011;64373;46.136;8.830;2023-08-17T07:24:33;4.90;;;4.45;;
75760;SDS011;64373;46.136;8.830;2023-08-17T07:26:59;5.63;;;4.25;;
75760;SDS011;64373;46.136;8.830;2023-08-17T07:29:25;4.22;;;3.83;;
75760;SDS011;64373;46.136;8.830;2023-08-17T07:31:51;4.53;;;3.97;;
75760;SDS011;64373;46.136;8.830;2023-08-17T07:34:16;5.88;;;4.85;;
75760;SDS011;64373;46.136;8.830;2023-08-17T07:36:42;4.93;;;4.00;;
75760;SDS011;64373;46.136;8.830;2023-08-17T07:39:08;5.03;;;4.43;;
75760;SDS011;64373;46.136;8.830;2023-08-17T07:41:33;5.45;;;4.32;;
75760;SDS011;64373;46.136;8.830;2023-08-17T07:43:59;4.55;;;4.03;;
75760;SDS011;64373;46.136;8.830;2023-08-17T07:46:25;5.18;;;4.68;;
75760;SDS011;64373;46.136;8.830;2023-08-17T07:48:50;5.35;;;4.55;;
75760;SDS011;64373;46.136;8.830;2023-08-17T07:51:19;4.18;;;3.38;;
75760;SDS011;64373;46.136;8.830;2023-08-17T08:13:55;4.40;;;4.00;;
75760;SDS011;64373;46.136;8.830;2023-08-17T08:16:21;5.03;;;4.05;;
75760;SDS011;64373;46.136;8.830;2023-08-17T08:18:48;5.32;;;4.60;;
75760;SDS011;64373;46.136;8.830;2023-08-17T08:21:14;5.45;;;4.72;;
75760;SDS011;64373;46.136;8.830;2023-08-17T08:23:39;4.10;;;3.70;;
75760;SDS011;64373;46.136;8.830;2023-08-17T08:26:05;4.22;;;3.83;;
75760;SDS011;64373;46.136;8.830;2023-08-17T08:28:31;4.65;;;4.15;;
75760;SDS011;64373;46.136;8.830;2023-08-17T08:31:00;4.93;;;4.07;;
75760;SDS011;64373;46.136;8.830;2023-08-17T08:33:27;3.58;;;3.28;;
75760;SDS011;64373;46.136;8.830;2023-08-17T08:35:53;4.47;;;3.80;;
75760;SDS011;64373;46.136;8.830;2023-08-17T08:38:19;4.70;;;4.07;;
75760;SDS011;64373;46.136;8.830;2023-08-17T08:40:45;5.40;;;4.60;;
75760;SDS011;64373;46.136;8.830;2023-08-17T08:43:13;4.63;;;4.03;;
75760;SDS011;64373;46.136;8.830;2023-08-17T08:45:42;5.13;;;3.88;;
75760;SDS011;64373;46.136;8.830;2023-08-17T08:48:10;4.68;;;4.13;;
75760;SDS011;64373;46.136;8.830;2023-08-17T08:50:36;4.55;;;4.15;;
75760;SDS011;64373;46.136;8.830;2023-08-17T08:53:13;4.72;;;4.20;;
75760;SDS011;64373;46.136;8.830;2023-08-17T08:55:41;4.95;;;4.40;;
75760;SDS011;64373;46.136;8.830;2023-08-17T08:58:17;4.72;;;4.30;;
75760;SDS011;64373;46.136;8.830;2023-08-17T09:00:45;5.35;;;4.22;;
75760;SDS011;64373;46.136;8.830;2023-08-17T09:03:12;5.80;;;4.22;;
75760;SDS011;64373;46.136;8.830;2023-08-17T09:05:40;5.60;;;4.28;;
75760;SDS011;64373;46.136;8.830;2023-08-17T09:08:10;4.68;;;4.28;;
75760;SDS011;64373;46.136;8.830;2023-08-17T09:10:37;4.85;;;4.13;;
75760;SDS011;64373;46.136;8.830;2023-08-17T09:13:03;4.97;;;4.47;;
75760;SDS011;64373;46.136;8.830;2023-08-17T09:15:29;4.40;;;4.00;;
75760;SDS011;64373;46.136;8.830;2023-08-17T09:17:55;4.78;;;4.18;;
75760;SDS011;64373;46.136;8.830;2023-08-17T09:23:10;5.20;;;4.63;;
75760;SDS011;64373;46.136;8.830;2023-08-17T09:25:39;4.85;;;4.45;;
75760;SDS011;64373;46.136;8.830;2023-08-17T09:28:06;4.88;;;4.32;;
75760;SDS011;64373;46.136;8.830;2023-08-17T09:30:48;5.18;;;4.45;;
75760;SDS011;64373;46.136;8.830;2023-08-17T09:33:32;4.95;;;4.40;;
75760;SDS011;64373;46.136;8.830;2023-08-17T09:35:58;4.78;;;4.28;;
75760;SDS011;64373;46.136;8.830;2023-08-17T09:38:25;4.85;;;4.45;;
75760;SDS011;64373;46.136;8.830;2023-08-17T09:40:52;4.95;;;4.55;;
75760;SDS011;64373;46.136;8.830;2023-08-17T09:43:18;5.28;;;4.57;;
75760;SDS011;64373;46.136;8.830;2023-08-17T09:45:47;4.85;;;4.40;;
75760;SDS011;64373;46.136;8.830;2023-08-17T09:48:18;5.15;;;4.57;;
75760;SDS011;64373;46.136;8.830;2023-08-17T09:50:45;6.13;;;4.70;;
75760;SDS011;64373;46.136;8.830;2023-08-17T09:53:15;5.25;;;4.68;;
75760;SDS011;64373;46.136;8.830;2023-08-17T09:55:42;5.05;;;4.55;;
75760;SDS011;64373;46.136;8.830;2023-08-17T09:58:09;5.50;;;4.70;;
75760;SDS011;64373;46.136;8.830;2023-08-17T10:00:35;5.22;;;4.72;;
75760;SDS011;64373;46.136;8.830;2023-08-17T10:03:04;5.13;;;4.47;;
75760;SDS011;64373;46.136;8.830;2023-08-17T10:05:34;4.95;;;4.55;;
75760;SDS011;64373;46.136;8.830;2023-08-17T10:08:03;6.32;;;4.60;;
75760;SDS011;64373;46.136;8.830;2023-08-17T10:10:32;6.38;;;4.80;;
75760;SDS011;64373;46.136;8.830;2023-08-17T10:13:10;4.70;;;4.30;;
75760;SDS011;64373;46.136;8.830;2023-08-17T10:15:37;7.43;;;5.30;;
75760;SDS011;64373;46.136;8.830;2023-08-17T10:18:26;6.10;;;4.45;;
75760;SDS011;64373;46.136;8.830;2023-08-17T10:21:12;5.90;;;5.00;;
75760;SDS011;64373;46.136;8.830;2023-08-17T10:23:42;4.80;;;4.40;;
75760;SDS011;64373;46.136;8.830;2023-08-17T10:26:10;6.15;;;4.50;;
75760;SDS011;64373;46.136;8.830;2023-08-17T10:28:35;4.82;;;4.28;;
75760;SDS011;64373;46.136;8.830;2023-08-17T10:31:01;4.90;;;4.05;;
75760;SDS011;64373;46.136;8.830;2023-08-17T10:33:27;5.25;;;4.75;;
75760;SDS011;64373;46.136;8.830;2023-08-17T10:35:53;4.93;;;4.53;;
75760;SDS011;64373;46.136;8.830;2023-08-17T10:38:19;5.30;;;4.72;;
75760;SDS011;64373;46.136;8.830;2023-08-17T10:40:45;5.07;;;4.57;;
75760;SDS011;64373;46.136;8.830;2023-08-17T10:43:35;4.20;;;3.78;;
75760;SDS011;64373;46.136;8.830;2023-08-17T10:46:15;5.50;;;4.32;;
75760;SDS011;64373;46.136;8.830;2023-08-17T10:48:44;4.40;;;4.00;;
75760;SDS011;64373;46.136;8.830;2023-08-17T10:51:10;4.38;;;3.72;;
75760;SDS011;64373;46.136;8.830;2023-08-17T10:53:38;4.38;;;3.97;;
75760;SDS011;64373;46.136;8.830;2023-08-17T10:56:10;5.70;;;3.83;;
75760;SDS011;64373;46.136;8.830;2023-08-17T10:58:42;3.60;;;3.30;;
75760;SDS011;64373;46.136;8.830;2023-08-17T11:01:08;4.15;;;3.75;;
75760;SDS011;64373;46.136;8.830;2023-08-17T11:03:33;5.00;;;3.78;;
75760;SDS011;64373;46.136;8.830;2023-08-17T11:06:23;4.90;;;4.43;;
75760;SDS011;64373;46.136;8.830;2023-08-17T11:08:51;4.35;;;3.95;;
75760;SDS011;64373;46.136;8.830;2023-08-17T11:11:20;4.50;;;4.00;;
75760;SDS011;64373;46.136;8.830;2023-08-17T11:13:47;4.30;;;4.00;;
75760;SDS011;64373;46.136;8.830;2023-08-17T11:16:14;4.13;;;3.83;;
75760;SDS011;64373;46.136;8.830;2023-08-17T11:18:40;4.63;;;4.22;;
75760;SDS011;64373;46.136;8.830;2023-08-17T11:21:09;5.20;;;4.70;;
75760;SDS011;64373;46.136;8.830;2023-08-17T11:23:40;4.93;;;4.45;;
75760;SDS011;64373;46.136;8.830;2023-08-17T11:26:15;5.60;;;4.72;;
75760;SDS011;64373;46.136;8.830;2023-08-17T11:28:42;5.53;;;4.50;;
75760;SDS011;64373;46.136;8.830;2023-08-17T11:31:10;6.00;;;4.45;;
75760;SDS011;64373;46.136;8.830;2023-08-17T11:33:38;5.00;;;4.43;;
75760;SDS011;64373;46.136;8.830;2023-08-17T11:36:05;5.18;;;4.55;;
75760;SDS011;64373;46.136;8.830;2023-08-17T11:38:33;5.47;;;4.97;;
75760;SDS011;64373;46.136;8.830;2023-08-17T11:41:00;6.10;;;4.65;;
75760;SDS011;64373;46.136;8.830;2023-08-17T11:43:28;5.97;;;5.47;;
75760;SDS011;64373;46.136;8.830;2023-08-17T11:45:55;5.60;;;5.10;;
75760;SDS011;64373;46.136;8.830;2023-08-17T11:48:21;5.20;;;4.78;;
75760;SDS011;64373;46.136;8.830;2023-08-17T11:50:47;4.88;;;4.38;;
75760;SDS011;64373;46.136;8.830;2023-08-17T11:53:14;4.93;;;4.43;;
75760;SDS011;64373;46.136;8.830;2023-08-17T11:55:40;5.50;;;5.00;;
75760;SDS011;64373;46.136;8.830;2023-08-17T11:58:07;7.00;;;5.18;;
75760;SDS011;64373;46.136;8.830;2023-08-17T12:00:39;5.70;;;4.68;;
75760;SDS011;64373;46.136;8.830;2023-08-17T12:03:13;5.20;;;4.80;;
75760;SDS011;64373;46.136;8.830;2023-08-17T12:05:40;5.00;;;4.60;;
75760;SDS011;64373;46.136;8.830;2023-08-17T12:08:07;5.43;;;4.68;;
75760;SDS011;64373;46.136;8.830;2023-08-17T12:10:33;5.03;;;4.63;;
75760;SDS011;64373;46.136;8.830;2023-08-17T12:12:59;5.00;;;4.60;;
75760;SDS011;64373;46.136;8.830;2023-08-17T12:15:33;5.40;;;3.95;;
75760;SDS011;64373;46.136;8.830;2023-08-17T12:18:01;4.68;;;4.28;;
75760;SDS011;64373;46.136;8.830;2023-08-17T12:20:28;6.82;;;4.38;;
75760;SDS011;64373;46.136;8.830;2023-08-17T12:22:57;5.18;;;4.78;;
75760;SDS011;64373;46.136;8.830;2023-08-17T12:25:24;4.82;;;4.07;;
75760;SDS011;64373;46.136;8.830;2023-08-17T12:27:50;5.07;;;4.63;;
75760;SDS011;64373;46.136;8.830;2023-08-17T12:30:26;4.80;;;4.40;;
75760;SDS011;64373;46.136;8.830;2023-08-17T12:32:53;5.20;;;4.60;;
75760;SDS011;64373;46.136;8.830;2023-08-17T12:35:19;5.03;;;4.63;;
75760;SDS011;64373;46.136;8.830;2023-08-17T12:37:47;4.82;;;4.43;;
75760;SDS011;64373;46.136;8.830;2023-08-17T12:40:13;4.95;;;4.45;;
75760;SDS011;64373;46.136;8.830;2023-08-17T12:42:39;4.90;;;4.40;;
75760;SDS011;64373;46.136;8.830;2023-08-17T12:45:04;4.85;;;4.25;;
75760;SDS011;64373;46.136;8.830;2023-08-17T12:47:30;4.53;;;4.15;;
75760;SDS011;64373;46.136;8.830;2023-08-17T12:49:56;4.72;;;4.25;;
75760;SDS011;64373;46.136;8.830;2023-08-17T12:52:22;5.20;;;4.60;;
75760;SDS011;64373;46.136;8.830;2023-08-17T12:54:47;5.18;;;4.65;;
75760;SDS011;64373;46.136;8.830;2023-08-17T12:57:13;5.20;;;4.60;;
75760;SDS011;64373;46.136;8.830;2023-08-17T12:59:39;5.05;;;4.55;;
75760;SDS011;64373;46.136;8.830;2023-08-17T13:02:04;4.93;;;4.53;;
75760;SDS011;64373;46.136;8.830;2023-08-17T13:04:31;4.80;;;4.40;;
75760;SDS011;64373;46.136;8.830;2023-08-17T13:06:56;5.03;;;4.53;;
75760;SDS011;64373;46.136;8.830;2023-08-17T13:09:22;4.95;;;4.30;;
75760;SDS011;64373;46.136;8.830;2023-08-17T13:11:48;5.90;;;4.43;;
75760;SDS011;64373;46.136;8.830;2023-08-17T13:14:14;4.78;;;4.38;;
75760;SDS011;64373;46.136;8.830;2023-08-17T13:16:40;4.78;;;4.18;;
75760;SDS011;64373;46.136;8.830;2023-08-17T13:19:06;4.47;;;4.07;;
75760;SDS011;64373;46.136;8.830;2023-08-17T13:21:32;4.47;;;4.07;;
75760;SDS011;64373;46.136;8.830;2023-08-17T13:23:57;3.92;;;3.53;;
75760;SDS011;64373;46.136;8.830;2023-08-17T13:26:23;4.22;;;3.92;;
75760;SDS011;64373;46.136;8.830;2023-08-17T13:28:49;4.18;;;3.80;;
75760;SDS011;64373;46.136;8.830;2023-08-17T13:31:14;5.85;;;4.50;;
75760;SDS011;64373;46.136;8.830;2023-08-17T13:33:40;4.78;;;4.30;;
75760;SDS011;64373;46.136;8.830;2023-08-17T13:36:06;5.13;;;4.68;;
75760;SDS011;64373;46.136;8.830;2023-08-17T13:38:31;4.80;;;4.40;;
75760;SDS011;64373;46.136;8.830;2023-08-17T13:40:57;5.30;;;4.80;;
75760;SDS011;64373;46.136;8.830;2023-08-17T13:43:23;4.63;;;4.22;;
75760;SDS011;64373;46.136;8.830;2023-08-17T13:45:51;4.18;;;3.88;;
75760;SDS011;64373;46.136;8.830;2023-08-17T13:48:17;4.40;;;4.00;;
75760;SDS011;64373;46.136;8.830;2023-08-17T13:50:43;5.03;;;3.88;;
75760;SDS011;64373;46.136;8.830;2023-08-17T13:53:10;3.63;;;3.33;;
75760;SDS011;64373;46.136;8.830;2023-08-17T13:55:35;3.00;;;2.80;;
75760;SDS011;64373;46.136;8.830;2023-08-17T13:58:04;3.42;;;3.13;;
75760;SDS011;64373;46.136;8.830;2023-08-17T14:00:30;3.47;;;3.17;;
75760;SDS011;64373;46.136;8.830;2023-08-17T14:02:55;3.33;;;3.03;;
75760;SDS011;64373;46.136;8.830;2023-08-17T14:05:21;5.10;;;4.57;;
75760;SDS011;64373;46.136;8.830;2023-08-17T14:07:47;5.13;;;4.72;;
75760;SDS011;64373;46.136;8.830;2023-08-17T14:10:13;4.25;;;3.88;;
75760;SDS011;64373;46.136;8.830;2023-08-17T14:12:39;5.20;;;4.80;;
75760;SDS011;64373;46.136;8.830;2023-08-17T14:15:05;5.22;;;4.80;;
75760;SDS011;64373;46.136;8.830;2023-08-17T14:17:31;4.90;;;4.47;;
75760;SDS011;64373;46.136;8.830;2023-08-17T14:19:57;5.20;;;4.65;;
75760;SDS011;64373;46.136;8.830;2023-08-17T14:22:23;4.90;;;3.60;;
75760;SDS011;64373;46.136;8.830;2023-08-17T14:24:49;4.30;;;2.70;;
75760;SDS011;64373;46.136;8.830;2023-08-17T14:27:15;3.03;;;2.30;;
75760;SDS011;64373;46.136;8.830;2023-08-17T14:29:41;3.08;;;2.40;;
75760;SDS011;64373;46.136;8.830;2023-08-17T14:32:06;2.78;;;2.42;;
75760;SDS011;64373;46.136;8.830;2023-08-17T14:34:32;3.40;;;2.38;;
75760;SDS011;64373;46.136;8.830;2023-08-17T14:36:58;2.92;;;2.03;;
75760;SDS011;64373;46.136;8.830;2023-08-17T14:39:23;3.67;;;2.20;;
75760;SDS011;64373;46.136;8.830;2023-08-17T14:41:50;3.00;;;2.28;;
75760;SDS011;64373;46.136;8.830;2023-08-17T14:44:18;2.97;;;2.08;;
75760;SDS011;64373;46.136;8.830;2023-08-17T14:46:44;3.97;;;2.03;;
75760;SDS011;64373;46.136;8.830;2023-08-17T14:49:09;2.75;;;2.53;;
75760;SDS011;64373;46.136;8.830;2023-08-17T14:51:38;2.95;;;2.17;;
75760;SDS011;64373;46.136;8.830;2023-08-17T14:54:06;2.03;;;1.80;;
75760;SDS011;64373;46.136;8.830;2023-08-17T14:56:34;2.92;;;1.95;;
75760;SDS011;64373;46.136;8.830;2023-08-17T14:59:02;3.97;;;2.35;;
75760;SDS011;64373;46.136;8.830;2023-08-17T15:01:27;4.13;;;2.20;;
75760;SDS011;64373;46.136;8.830;2023-08-17T15:03:55;2.78;;;1.92;;
75760;SDS011;64373;46.136;8.830;2023-08-17T15:06:20;3.08;;;2.05;;
75760;SDS011;64373;46.136;8.830;2023-08-17T15:08:50;2.28;;;1.90;;
75760;SDS011;64373;46.136;8.830;2023-08-17T15:11:16;2.58;;;1.90;;
75760;SDS011;64373;46.136;8.830;2023-08-17T15:13:42;2.50;;;1.70;;